createdAt,value
2022-08-17T00:00:34.513Z,24.00
2022-08-17T00:00:51.652Z,24.00
2022-08-17T00:01:05.972Z,24.00
2022-08-17T00:01:27.224Z,24.00
2022-08-17T00:01:51.762Z,24.00
2022-08-17T00:02:13.249Z,24.00
2022-08-17T00:02:37.168Z,24.00
2022-08-17T00:03:15.041Z,23.90
2022-08-17T00:03:38.542Z,24.00
2022-08-17T00:03:51.153Z,23.90
2022-08-17T00:04:04.312Z,23.90
2022-08-17T00:04:21.176Z,23.90
2022-08-17T00:04:32.914Z,23.90
2022-08-17T00:04:49.894Z,23.90
2022-08-17T00:05:02.409Z,23.90
2022-08-17T00:05:15.556Z,23.90
2022-08-17T00:05:28.720Z,23.90
2022-08-17T00:05:55.651Z,23.90
2022-08-17T00:06:13.932Z,23.90
2022-08-17T00:06:27.781Z,23.90
2022-08-17T00:06:39.563Z,23.90
2022-08-17T00:06:53.238Z,23.90
2022-08-17T00:07:04.963Z,23.80
2022-08-17T00:07:16.759Z,23.90
2022-08-17T00:07:28.479Z,23.90
2022-08-17T00:07:40.193Z,23.90
2022-08-17T00:07:51.986Z,23.80
2022-08-17T00:08:04.084Z,23.90
2022-08-17T00:08:16.957Z,23.80
2022-08-17T00:08:31.404Z,23.80
2022-08-17T00:08:53.998Z,23.80
2022-08-17T00:09:05.789Z,23.80
2022-08-17T00:09:18.398Z,23.80
2022-08-17T00:09:30.852Z,23.90
2022-08-17T00:09:42.624Z,23.80
2022-08-17T00:09:54.350Z,23.80
2022-08-17T00:10:06.701Z,23.80
2022-08-17T00:10:18.651Z,23.80
2022-08-17T00:10:31.145Z,23.80
2022-08-17T00:10:44.845Z,23.80
2022-08-17T00:10:56.669Z,23.80
2022-08-17T00:11:10.889Z,23.80
2022-08-17T00:11:29.727Z,23.80
2022-08-17T00:11:42.637Z,23.80
2022-08-17T00:12:42.828Z,23.80
2022-08-17T00:12:46.592Z,23.80
2022-08-17T00:12:58.360Z,23.80
2022-08-17T00:13:13.341Z,23.80
2022-08-17T00:13:31.875Z,23.80
2022-08-17T00:13:46.310Z,23.80
2022-08-17T00:14:14.191Z,23.80
2022-08-17T00:14:25.918Z,23.80
2022-08-17T00:14:37.673Z,23.80
2022-08-17T00:14:50.362Z,23.80
2022-08-17T00:15:02.091Z,23.80
2022-08-17T00:15:14.772Z,23.80
2022-08-17T00:15:26.606Z,23.80
2022-08-17T00:15:38.506Z,23.80
2022-08-17T00:15:50.253Z,23.80
2022-08-17T00:16:07.105Z,23.80
2022-08-17T00:16:22.449Z,23.80
2022-08-17T00:16:56.812Z,23.80
2022-08-17T00:17:09.501Z,23.80
2022-08-17T00:17:21.548Z,23.80
2022-08-17T00:17:33.333Z,23.80
2022-08-17T00:17:47.564Z,23.80
2022-08-17T00:17:59.332Z,23.80
2022-08-17T00:19:01.195Z,23.80
2022-08-17T00:19:06.104Z,23.80
2022-08-17T00:19:15.820Z,23.80
2022-08-17T00:19:27.578Z,23.80
2022-08-17T00:19:39.336Z,23.80
2022-08-17T00:22:31.592Z,23.80
2022-08-17T00:22:47.789Z,23.80
2022-08-17T00:23:10.576Z,23.80
2022-08-17T00:23:22.561Z,23.70
2022-08-17T00:23:35.109Z,23.70
2022-08-17T00:23:49.164Z,23.70
2022-08-17T00:24:01.210Z,23.70
2022-08-17T00:24:13.457Z,23.70
2022-08-17T00:24:25.213Z,23.70
2022-08-17T00:24:36.942Z,23.70
2022-08-17T00:24:48.657Z,23.70
2022-08-17T00:25:00.430Z,23.80
2022-08-17T00:25:15.440Z,23.80
2022-08-17T00:25:27.222Z,23.80
2022-08-17T00:25:40.531Z,23.80
2022-08-17T00:25:52.612Z,23.80
2022-08-17T00:26:04.400Z,23.80
2022-08-17T00:26:16.617Z,23.80
2022-08-17T00:26:48.363Z,23.80
2022-08-17T00:27:00.121Z,23.80
2022-08-17T00:27:11.899Z,23.80
2022-08-17T00:27:23.725Z,23.80
2022-08-17T00:27:35.680Z,23.80
2022-08-17T00:27:47.493Z,23.80
2022-08-17T00:27:59.268Z,23.80
2022-08-17T00:28:12.614Z,23.80
2022-08-17T00:28:24.419Z,23.80
2022-08-17T00:28:38.226Z,23.80
2022-08-17T00:28:50.887Z,23.80
2022-08-17T00:29:04.498Z,23.80
2022-08-17T00:29:19.736Z,23.80
2022-08-17T00:29:31.996Z,23.80
2022-08-17T00:29:45.451Z,23.80
2022-08-17T00:29:57.270Z,23.80
2022-08-17T00:30:10.665Z,23.80
2022-08-17T00:30:22.423Z,23.80
2022-08-17T00:30:51.139Z,23.80
2022-08-17T00:31:06.680Z,23.80
2022-08-17T00:31:18.670Z,23.80
2022-08-17T00:31:30.440Z,23.80
2022-08-17T00:31:42.162Z,23.80
2022-08-17T00:31:53.909Z,23.80
2022-08-17T00:33:12.353Z,23.80
2022-08-17T00:33:12.501Z,23.80
2022-08-17T00:33:19.939Z,23.80
2022-08-17T00:33:31.968Z,23.80
2022-08-17T00:33:45.394Z,23.80
2022-08-17T00:33:57.239Z,23.80
2022-08-17T00:34:10.103Z,23.80
2022-08-17T00:34:21.868Z,23.80
2022-08-17T00:34:33.575Z,23.80
2022-08-17T00:34:45.833Z,23.80
2022-08-17T00:34:57.578Z,23.80
2022-08-17T00:35:10.383Z,23.80
2022-08-17T00:35:25.410Z,23.80
2022-08-17T00:35:38.174Z,23.80
2022-08-17T00:35:49.953Z,23.80
2022-08-17T00:36:02.024Z,23.80
2022-08-17T00:36:14.279Z,23.80
2022-08-17T00:36:26.056Z,23.80
2022-08-17T00:36:37.803Z,23.80
2022-08-17T00:36:49.510Z,23.80
2022-08-17T00:37:01.274Z,23.80
2022-08-17T00:37:13.018Z,23.80
2022-08-17T00:37:24.776Z,23.80
2022-08-17T00:37:36.531Z,23.80
2022-08-17T00:37:48.319Z,23.80
2022-08-17T00:38:00.137Z,23.80
2022-08-17T00:38:12.294Z,23.80
2022-08-17T00:38:24.365Z,23.80
2022-08-17T00:38:36.259Z,23.80
2022-08-17T00:38:48.096Z,23.80
2022-08-17T00:38:59.873Z,23.80
2022-08-17T00:39:11.704Z,23.80
2022-08-17T00:39:23.607Z,23.80
2022-08-17T00:39:35.441Z,23.80
2022-08-17T00:39:47.263Z,23.80
2022-08-17T00:39:59.176Z,23.80
2022-08-17T00:40:12.430Z,23.80
2022-08-17T00:40:24.805Z,23.80
2022-08-17T00:40:44.209Z,23.80
2022-08-17T00:40:59.562Z,23.80
2022-08-17T00:41:13.816Z,23.80
2022-08-17T00:41:28.515Z,23.80
2022-08-17T00:41:43.154Z,23.80
2022-08-17T00:41:54.911Z,23.80
2022-08-17T00:42:16.856Z,23.80
2022-08-17T00:42:31.084Z,23.80
2022-08-17T00:42:43.504Z,23.80
2022-08-17T00:42:55.545Z,23.80
2022-08-17T00:43:17.608Z,23.80
2022-08-17T00:43:35.073Z,23.70
2022-08-17T00:43:54.829Z,23.80
2022-08-17T00:44:06.891Z,23.70
2022-08-17T00:44:18.652Z,23.70
2022-08-17T00:44:31.290Z,23.70
2022-08-17T00:44:43.100Z,23.80
2022-08-17T00:44:54.809Z,23.80
2022-08-17T00:45:07.419Z,23.70
2022-08-17T00:45:20.335Z,23.70
2022-08-17T00:45:32.085Z,23.70
2022-08-17T00:45:44.049Z,23.70
2022-08-17T00:45:56.017Z,23.70
2022-08-17T00:46:13.596Z,23.70
2022-08-17T00:46:33.160Z,23.70
2022-08-17T00:46:44.999Z,23.80
2022-08-17T00:46:56.770Z,23.80
2022-08-17T00:47:08.570Z,23.80
2022-08-17T00:47:20.297Z,23.80
2022-08-17T00:47:32.139Z,23.80
2022-08-17T00:47:44.073Z,23.80
2022-08-17T00:47:55.832Z,23.80
2022-08-17T00:48:08.159Z,23.80
2022-08-17T00:48:39.420Z,23.80
2022-08-17T00:48:51.190Z,23.80
2022-08-17T00:49:03.279Z,23.80
2022-08-17T00:49:15.489Z,23.80
2022-08-17T00:49:27.340Z,23.80
2022-08-17T00:49:39.050Z,23.80
2022-08-17T00:49:52.032Z,23.80
2022-08-17T00:50:07.171Z,23.80
2022-08-17T00:50:19.132Z,23.80
2022-08-17T00:50:30.886Z,23.80
2022-08-17T00:50:45.210Z,23.80
2022-08-17T00:51:03.957Z,23.80
2022-08-17T00:51:27.568Z,23.90
2022-08-17T00:51:48.916Z,23.90
2022-08-17T00:52:10.867Z,23.90
2022-08-17T00:52:30.495Z,23.90
2022-08-17T00:52:48.508Z,23.90
2022-08-17T00:53:00.398Z,23.90
2022-08-17T00:53:12.131Z,23.80
2022-08-17T00:53:25.454Z,23.90
2022-08-17T00:53:40.007Z,23.90
2022-08-17T00:53:57.720Z,23.80
2022-08-17T00:54:15.791Z,23.90
2022-08-17T00:54:33.777Z,23.90
2022-08-17T00:54:54.057Z,23.90
2022-08-17T00:55:06.552Z,23.80
2022-08-17T00:55:18.776Z,23.80
2022-08-17T00:55:30.566Z,23.80
2022-08-17T00:55:42.281Z,23.80
2022-08-17T00:55:53.979Z,23.90
2022-08-17T00:56:08.187Z,23.80
2022-08-17T00:56:26.301Z,23.80
2022-08-17T00:56:40.676Z,23.90
2022-08-17T00:56:55.536Z,23.90
2022-08-17T00:57:13.066Z,23.90
2022-08-17T00:57:28.430Z,23.90
2022-08-17T00:57:44.997Z,23.90
2022-08-17T00:57:58.453Z,23.80
2022-08-17T00:58:10.195Z,23.90
2022-08-17T00:58:35.876Z,23.80
2022-08-17T00:58:49.408Z,23.80
2022-08-17T00:59:02.273Z,23.80
2022-08-17T00:59:20.729Z,23.80
2022-08-17T00:59:36.533Z,23.70
2022-08-17T01:00:02.330Z,23.70
2022-08-17T01:00:26.675Z,23.70
2022-08-17T01:00:42.448Z,23.70
2022-08-17T01:00:54.349Z,23.70
2022-08-17T01:01:06.726Z,23.70
2022-08-17T01:01:21.507Z,23.80
2022-08-17T01:01:33.867Z,23.70
2022-08-17T01:01:46.136Z,23.80
2022-08-17T01:01:58.196Z,23.70
2022-08-17T01:02:10.312Z,23.70
2022-08-17T01:02:22.965Z,23.80
2022-08-17T01:02:42.170Z,23.80
2022-08-17T01:02:58.141Z,23.80
2022-08-17T01:03:15.105Z,23.70
2022-08-17T01:03:26.885Z,23.70
2022-08-17T01:03:38.719Z,23.70
2022-08-17T01:03:53.406Z,23.70
2022-08-17T01:04:09.639Z,23.70
2022-08-17T01:04:21.761Z,23.70
2022-08-17T01:04:33.600Z,23.70
2022-08-17T01:04:45.993Z,23.80
2022-08-17T01:04:57.735Z,23.80
2022-08-17T01:05:15.117Z,23.70
2022-08-17T01:05:29.884Z,23.70
2022-08-17T01:05:42.252Z,23.70
2022-08-17T01:05:56.901Z,23.70
2022-08-17T01:06:09.172Z,23.70
2022-08-17T01:06:21.810Z,23.70
2022-08-17T01:06:34.507Z,23.70
2022-08-17T01:06:49.449Z,23.70
2022-08-17T01:07:01.370Z,23.70
2022-08-17T01:07:13.226Z,23.70
2022-08-17T01:07:24.982Z,23.70
2022-08-17T01:07:38.051Z,23.70
2022-08-17T01:07:50.879Z,23.60
2022-08-17T01:08:02.962Z,23.60
2022-08-17T01:08:15.301Z,23.60
2022-08-17T01:08:28.036Z,23.60
2022-08-17T01:08:40.441Z,23.60
2022-08-17T01:08:57.335Z,23.60
2022-08-17T01:09:09.775Z,23.60
2022-08-17T01:09:21.642Z,23.60
2022-08-17T01:09:33.418Z,23.60
2022-08-17T01:09:45.146Z,23.60
2022-08-17T01:09:56.894Z,23.60
2022-08-17T01:10:08.854Z,23.60
2022-08-17T01:10:58.481Z,23.60
2022-08-17T01:11:12.477Z,23.60
2022-08-17T01:11:24.214Z,23.60
2022-08-17T01:11:37.234Z,23.60
2022-08-17T01:11:52.209Z,23.60
2022-08-17T01:12:06.192Z,23.50
2022-08-17T01:12:20.557Z,23.60
2022-08-17T01:12:35.024Z,23.50
2022-08-17T01:12:46.781Z,23.60
2022-08-17T01:13:02.742Z,23.60
2022-08-17T01:13:15.005Z,23.60
2022-08-17T01:13:27.780Z,23.60
2022-08-17T01:13:42.063Z,23.60
2022-08-17T01:13:53.816Z,23.60
2022-08-17T01:14:05.658Z,23.60
2022-08-17T01:14:19.403Z,23.60
2022-08-17T01:14:31.107Z,23.60
2022-08-17T01:14:42.908Z,23.60
2022-08-17T01:14:54.638Z,23.50
2022-08-17T01:15:06.818Z,23.50
2022-08-17T01:15:18.536Z,23.50
2022-08-17T01:15:31.188Z,23.50
2022-08-17T01:15:46.543Z,23.50
2022-08-17T01:16:10.095Z,23.50
2022-08-17T01:16:31.578Z,23.40
2022-08-17T01:16:43.278Z,23.40
2022-08-17T01:16:55.629Z,23.50
2022-08-17T01:17:07.816Z,23.40
2022-08-17T01:17:19.616Z,23.40
2022-08-17T01:17:31.375Z,23.40
2022-08-17T01:17:44.331Z,23.40
2022-08-17T01:17:56.121Z,23.40
2022-08-17T01:18:08.718Z,23.40
2022-08-17T01:18:21.277Z,23.40
2022-08-17T01:18:33.551Z,23.40
2022-08-17T01:18:46.886Z,23.40
2022-08-17T01:19:03.582Z,23.40
2022-08-17T01:19:26.513Z,23.40
2022-08-17T01:19:39.589Z,23.40
2022-08-17T01:19:51.347Z,23.40
2022-08-17T01:20:03.585Z,23.40
2022-08-17T01:20:16.813Z,23.40
2022-08-17T01:20:28.578Z,23.40
2022-08-17T01:20:51.393Z,23.40
2022-08-17T01:21:09.824Z,23.30
2022-08-17T01:21:47.603Z,23.30
2022-08-17T01:22:11.160Z,23.30
2022-08-17T01:22:25.954Z,23.40
2022-08-17T01:22:37.692Z,23.40
2022-08-17T01:22:49.580Z,23.40
2022-08-17T01:23:01.503Z,23.40
2022-08-17T01:23:18.531Z,23.40
2022-08-17T01:23:32.673Z,23.40
2022-08-17T01:23:44.529Z,23.40
2022-08-17T01:23:56.383Z,23.40
2022-08-17T01:24:08.417Z,23.40
2022-08-17T01:24:20.178Z,23.40
2022-08-17T01:24:33.780Z,23.40
2022-08-17T01:24:48.695Z,23.40
2022-08-17T01:25:01.950Z,23.40
2022-08-17T01:25:13.735Z,23.40
2022-08-17T01:25:25.459Z,23.40
2022-08-17T01:25:37.181Z,23.40
2022-08-17T01:25:53.484Z,23.40
2022-08-17T01:26:06.531Z,23.40
2022-08-17T01:26:18.382Z,23.40
2022-08-17T01:26:30.177Z,23.40
2022-08-17T01:26:42.475Z,23.40
2022-08-17T01:26:54.231Z,23.40
2022-08-17T01:27:10.399Z,23.40
2022-08-17T01:27:22.557Z,23.40
2022-08-17T01:27:35.358Z,23.40
2022-08-17T01:27:47.510Z,23.40
2022-08-17T01:27:59.267Z,23.40
2022-08-17T01:28:11.012Z,23.40
2022-08-17T01:28:53.934Z,23.30
2022-08-17T01:29:07.436Z,23.30
2022-08-17T01:29:19.381Z,23.40
2022-08-17T01:29:31.148Z,23.30
2022-08-17T01:29:44.650Z,23.30
2022-08-17T01:30:00.745Z,23.30
2022-08-17T01:30:57.329Z,23.30
2022-08-17T01:30:58.000Z,23.30
2022-08-17T01:31:11.110Z,23.20
2022-08-17T01:31:24.599Z,23.20
2022-08-17T01:31:39.407Z,23.20
2022-08-17T01:31:54.007Z,23.30
2022-08-17T01:32:07.417Z,23.30
2022-08-17T01:32:20.338Z,23.30
2022-08-17T01:32:32.176Z,23.30
2022-08-17T01:32:43.905Z,23.30
2022-08-17T01:32:55.614Z,23.30
2022-08-17T01:33:11.375Z,23.30
2022-08-17T01:33:23.247Z,23.30
2022-08-17T01:33:35.272Z,23.30
2022-08-17T01:33:47.510Z,23.30
2022-08-17T01:34:00.633Z,23.30
2022-08-17T01:34:15.220Z,23.30
2022-08-17T01:34:33.465Z,23.30
2022-08-17T01:34:55.456Z,23.30
2022-08-17T01:35:07.656Z,23.20
2022-08-17T01:35:19.465Z,23.30
2022-08-17T01:35:31.506Z,23.20
2022-08-17T01:35:43.204Z,23.30
2022-08-17T01:35:54.945Z,23.30
2022-08-17T01:36:07.467Z,23.20
2022-08-17T01:36:19.259Z,23.20
2022-08-17T01:36:30.987Z,23.20
2022-08-17T01:36:44.618Z,23.20
2022-08-17T01:36:56.507Z,23.20
2022-08-17T01:37:08.277Z,23.30
2022-08-17T01:37:21.295Z,23.20
2022-08-17T01:37:35.562Z,23.30
2022-08-17T01:37:47.358Z,23.20
2022-08-17T01:37:59.109Z,23.30
2022-08-17T01:38:10.844Z,23.30
2022-08-17T01:38:27.012Z,23.20
2022-08-17T01:38:39.244Z,23.30
2022-08-17T01:38:51.168Z,23.30
2022-08-17T01:39:05.163Z,23.30
2022-08-17T01:39:28.186Z,23.30
2022-08-17T01:39:50.349Z,23.30
2022-08-17T01:40:23.949Z,23.30
2022-08-17T01:40:38.950Z,23.40
2022-08-17T01:40:57.507Z,23.40
2022-08-17T01:41:12.408Z,23.30
2022-08-17T01:41:24.389Z,23.40
2022-08-17T01:41:36.121Z,23.40
2022-08-17T01:41:47.876Z,23.40
2022-08-17T01:42:05.932Z,23.40
2022-08-17T01:42:27.057Z,23.40
2022-08-17T01:42:45.852Z,23.40
2022-08-17T01:43:03.600Z,23.40
2022-08-17T01:43:21.666Z,23.40
2022-08-17T01:43:38.960Z,23.40
2022-08-17T01:44:04.438Z,23.40
2022-08-17T01:44:16.584Z,23.40
2022-08-17T01:44:28.364Z,23.40
2022-08-17T01:44:40.078Z,23.40
2022-08-17T01:44:57.285Z,23.40
2022-08-17T01:45:37.739Z,23.40
2022-08-17T01:46:03.725Z,23.40
2022-08-17T01:46:27.597Z,23.40
2022-08-17T01:46:39.320Z,23.40
2022-08-17T01:46:51.013Z,23.40
2022-08-17T01:47:04.148Z,23.40
2022-08-17T01:47:16.022Z,23.40
2022-08-17T01:47:27.818Z,23.40
2022-08-17T01:47:41.708Z,23.40
2022-08-17T01:47:53.918Z,23.40
2022-08-17T01:48:05.804Z,23.40
2022-08-17T01:48:19.563Z,23.40
2022-08-17T01:48:35.444Z,23.40
2022-08-17T01:48:47.599Z,23.30
2022-08-17T01:48:59.751Z,23.40
2022-08-17T01:49:11.618Z,23.40
2022-08-17T01:49:23.376Z,23.30
2022-08-17T01:49:35.233Z,23.30
2022-08-17T01:49:47.234Z,23.30
2022-08-17T01:50:05.318Z,23.30
2022-08-17T01:50:19.823Z,23.40
2022-08-17T01:50:34.834Z,23.40
2022-08-17T01:50:47.530Z,23.30
2022-08-17T01:50:59.383Z,23.30
2022-08-17T01:51:11.120Z,23.40
2022-08-17T01:51:23.249Z,23.40
2022-08-17T01:51:35.062Z,23.40
2022-08-17T01:51:46.791Z,23.40
2022-08-17T01:51:58.586Z,23.40
2022-08-17T01:52:11.625Z,23.40
2022-08-17T01:52:23.801Z,23.40
2022-08-17T01:52:35.815Z,23.40
2022-08-17T01:52:50.269Z,23.40
2022-08-17T01:53:04.763Z,23.40
2022-08-17T01:53:49.736Z,23.40
2022-08-17T01:54:05.260Z,23.40
2022-08-17T01:54:18.028Z,23.40
2022-08-17T01:54:29.742Z,23.40
2022-08-17T01:54:42.689Z,23.40
2022-08-17T01:54:54.499Z,23.40
2022-08-17T01:55:06.567Z,23.40
2022-08-17T01:55:24.607Z,23.40
2022-08-17T01:55:43.146Z,23.40
2022-08-17T01:56:11.140Z,23.40
2022-08-17T01:56:23.542Z,23.40
2022-08-17T01:56:36.877Z,23.40
2022-08-17T01:56:50.020Z,23.40
2022-08-17T01:57:01.768Z,23.40
2022-08-17T01:57:13.654Z,23.40
2022-08-17T01:57:25.445Z,23.40
2022-08-17T01:57:37.205Z,23.40
2022-08-17T01:57:48.963Z,23.40
2022-08-17T01:58:00.707Z,23.40
2022-08-17T01:58:14.054Z,23.40
2022-08-17T01:58:25.901Z,23.40
2022-08-17T01:58:38.125Z,23.40
2022-08-17T01:58:50.113Z,23.40
2022-08-17T01:59:02.543Z,23.40
2022-08-17T01:59:15.067Z,23.40
2022-08-17T01:59:27.412Z,23.30
2022-08-17T01:59:39.181Z,23.30
2022-08-17T01:59:50.951Z,23.30
2022-08-17T02:00:04.712Z,23.30
2022-08-17T02:00:16.486Z,23.30
2022-08-17T02:00:28.251Z,23.30
2022-08-17T02:01:01.431Z,23.30
2022-08-17T02:01:15.359Z,23.30
2022-08-17T02:01:29.231Z,23.20
2022-08-17T02:01:41.138Z,23.20
2022-08-17T02:01:53.009Z,23.30
2022-08-17T02:02:05.641Z,23.20
2022-08-17T02:02:31.036Z,23.20
2022-08-17T02:02:45.965Z,23.30
2022-08-17T02:02:57.769Z,23.20
2022-08-17T02:03:10.542Z,23.20
2022-08-17T02:03:23.067Z,23.20
2022-08-17T02:03:35.222Z,23.20
2022-08-17T02:03:59.049Z,23.20
2022-08-17T02:04:13.126Z,23.20
2022-08-17T02:04:24.889Z,23.20
2022-08-17T02:04:36.635Z,23.20
2022-08-17T02:04:48.355Z,23.20
2022-08-17T02:05:00.279Z,23.20
2022-08-17T02:05:12.786Z,23.20
2022-08-17T02:05:24.716Z,23.20
2022-08-17T02:05:36.568Z,23.20
2022-08-17T02:05:48.980Z,23.20
2022-08-17T02:06:01.233Z,23.20
2022-08-17T02:06:27.613Z,23.20
2022-08-17T02:06:53.639Z,23.20
2022-08-17T02:07:06.377Z,23.20
2022-08-17T02:07:18.295Z,23.20
2022-08-17T02:07:59.919Z,23.20
2022-08-17T02:08:19.802Z,23.20
2022-08-17T02:08:38.761Z,23.20
2022-08-17T02:09:01.577Z,23.20
2022-08-17T02:09:16.576Z,23.20
2022-08-17T02:09:29.807Z,23.20
2022-08-17T02:09:42.229Z,23.20
2022-08-17T02:09:53.963Z,23.20
2022-08-17T02:10:06.725Z,23.20
2022-08-17T02:10:33.927Z,23.20
2022-08-17T02:10:46.988Z,23.20
2022-08-17T02:10:58.716Z,23.20
2022-08-17T02:11:17.080Z,23.30
2022-08-17T02:11:28.847Z,23.20
2022-08-17T02:11:42.073Z,23.20
2022-08-17T02:11:57.498Z,23.20
2022-08-17T02:12:39.039Z,23.20
2022-08-17T02:12:41.114Z,23.20
2022-08-17T02:12:52.996Z,23.20
2022-08-17T02:13:04.861Z,23.20
2022-08-17T02:13:16.648Z,23.20
2022-08-17T02:13:29.745Z,23.20
2022-08-17T02:13:42.049Z,23.20
2022-08-17T02:13:55.016Z,23.20
2022-08-17T02:14:14.793Z,23.20
2022-08-17T02:14:26.655Z,23.20
2022-08-17T02:14:38.551Z,23.20
2022-08-17T02:14:50.366Z,23.20
2022-08-17T02:15:02.115Z,23.20
2022-08-17T02:15:15.211Z,23.20
2022-08-17T02:15:28.632Z,23.20
2022-08-17T02:15:41.470Z,23.20
2022-08-17T02:15:53.237Z,23.20
2022-08-17T02:16:05.009Z,23.20
2022-08-17T02:16:16.763Z,23.20
2022-08-17T02:16:28.555Z,23.20
2022-08-17T02:16:49.071Z,23.20
2022-08-17T02:17:00.850Z,23.20
2022-08-17T02:17:12.654Z,23.20
2022-08-17T02:17:24.446Z,23.20
2022-08-17T02:17:36.213Z,23.20
2022-08-17T02:17:47.990Z,23.20
2022-08-17T02:18:07.508Z,23.20
2022-08-17T02:18:19.255Z,23.20
2022-08-17T02:18:30.960Z,23.20
2022-08-17T02:18:42.667Z,23.20
2022-08-17T02:18:55.717Z,23.20
2022-08-17T02:19:09.359Z,23.20
2022-08-17T02:19:21.877Z,23.20
2022-08-17T02:19:33.653Z,23.20
2022-08-17T02:19:45.378Z,23.20
2022-08-17T02:19:57.186Z,23.20
2022-08-17T02:20:10.101Z,23.20
2022-08-17T02:20:42.079Z,23.20
2022-08-17T02:20:54.475Z,23.20
2022-08-17T02:21:06.970Z,23.20
2022-08-17T02:21:18.743Z,23.20
2022-08-17T02:21:31.237Z,23.20
2022-08-17T02:21:44.341Z,23.20
2022-08-17T02:21:56.338Z,23.20
2022-08-17T02:22:08.190Z,23.20
2022-08-17T02:22:19.943Z,23.20
2022-08-17T02:22:31.750Z,23.20
2022-08-17T02:22:44.257Z,23.20
2022-08-17T02:22:55.995Z,23.20
2022-08-17T02:23:10.790Z,23.20
2022-08-17T02:23:23.246Z,23.20
2022-08-17T02:23:37.397Z,23.20
2022-08-17T02:23:49.364Z,23.20
2022-08-17T02:24:01.126Z,23.20
2022-08-17T02:24:58.894Z,23.20
2022-08-17T02:24:59.731Z,23.20
2022-08-17T02:25:15.004Z,23.20
2022-08-17T02:25:27.831Z,23.20
2022-08-17T02:25:39.586Z,23.20
2022-08-17T02:25:51.349Z,23.20
2022-08-17T02:26:03.398Z,23.20
2022-08-17T02:26:23.927Z,23.20
2022-08-17T02:26:38.585Z,23.20
2022-08-17T02:26:50.562Z,23.20
2022-08-17T02:27:02.340Z,23.20
2022-08-17T02:27:14.081Z,23.10
2022-08-17T02:27:25.819Z,23.10
2022-08-17T02:27:37.884Z,23.10
2022-08-17T02:27:50.984Z,23.10
2022-08-17T02:28:03.577Z,23.10
2022-08-17T02:28:15.899Z,23.10
2022-08-17T02:28:28.519Z,23.10
2022-08-17T02:28:40.257Z,23.10
2022-08-17T02:28:52.116Z,23.10
2022-08-17T02:29:04.758Z,23.10
2022-08-17T02:29:16.505Z,23.10
2022-08-17T02:29:28.224Z,23.10
2022-08-17T02:29:39.978Z,23.10
2022-08-17T02:29:51.874Z,23.10
2022-08-17T02:30:49.860Z,23.00
2022-08-17T02:30:59.932Z,23.10
2022-08-17T02:31:11.304Z,23.00
2022-08-17T02:31:23.030Z,22.90
2022-08-17T02:31:35.554Z,22.90
2022-08-17T02:31:48.021Z,22.90
2022-08-17T02:32:00.175Z,22.90
2022-08-17T02:32:28.101Z,22.90
2022-08-17T02:32:40.732Z,23.00
2022-08-17T02:32:53.272Z,23.00
2022-08-17T02:33:06.268Z,22.90
2022-08-17T02:33:22.070Z,22.90
2022-08-17T02:33:43.114Z,23.00
2022-08-17T02:34:04.005Z,23.00
2022-08-17T02:34:16.575Z,23.00
2022-08-17T02:34:28.410Z,23.00
2022-08-17T02:34:40.131Z,23.00
2022-08-17T02:34:52.042Z,23.00
2022-08-17T02:35:04.414Z,23.00
2022-08-17T02:35:16.158Z,23.00
2022-08-17T02:35:31.860Z,23.00
2022-08-17T02:35:43.659Z,23.00
2022-08-17T02:35:55.384Z,23.00
2022-08-17T02:36:09.034Z,23.00
2022-08-17T02:36:24.171Z,23.00
2022-08-17T02:36:39.065Z,23.00
2022-08-17T02:36:53.413Z,22.90
2022-08-17T02:37:05.330Z,23.00
2022-08-17T02:37:18.183Z,23.00
2022-08-17T02:37:30.158Z,23.00
2022-08-17T02:37:44.519Z,23.00
2022-08-17T02:38:01.455Z,23.00
2022-08-17T02:38:13.262Z,23.00
2022-08-17T02:38:25.015Z,23.00
2022-08-17T02:38:37.818Z,22.90
2022-08-17T02:38:49.611Z,23.00
2022-08-17T02:39:03.238Z,23.00
2022-08-17T02:39:15.000Z,23.00
2022-08-17T02:39:26.812Z,23.00
2022-08-17T02:39:38.821Z,22.90
2022-08-17T02:39:50.583Z,22.90
2022-08-17T02:40:02.714Z,22.90
2022-08-17T02:40:14.622Z,23.00
2022-08-17T02:40:36.354Z,22.90
2022-08-17T02:40:48.484Z,22.90
2022-08-17T02:41:01.443Z,22.90
2022-08-17T02:41:13.308Z,22.90
2022-08-17T02:41:25.057Z,22.90
2022-08-17T02:41:36.902Z,22.90
2022-08-17T02:41:48.926Z,22.90
2022-08-17T02:42:02.179Z,22.90
2022-08-17T02:42:14.358Z,22.90
2022-08-17T02:42:40.654Z,22.90
2022-08-17T02:42:52.383Z,22.90
2022-08-17T02:43:04.249Z,22.90
2022-08-17T02:43:15.985Z,22.90
2022-08-17T02:43:27.742Z,22.90
2022-08-17T02:43:39.536Z,22.90
2022-08-17T02:43:53.586Z,22.90
2022-08-17T02:44:05.997Z,22.90
2022-08-17T02:44:38.891Z,22.90
2022-08-17T02:44:50.274Z,22.90
2022-08-17T02:45:11.151Z,22.90
2022-08-17T02:45:23.804Z,22.90
2022-08-17T02:45:35.680Z,22.90
2022-08-17T02:45:47.427Z,22.90
2022-08-17T02:45:59.260Z,22.90
2022-08-17T02:46:12.687Z,22.90
2022-08-17T02:46:24.444Z,22.90
2022-08-17T02:46:36.399Z,22.90
2022-08-17T02:46:48.145Z,22.90
2022-08-17T02:47:00.447Z,22.90
2022-08-17T02:47:12.199Z,22.90
2022-08-17T02:47:24.549Z,22.90
2022-08-17T02:47:36.701Z,22.90
2022-08-17T02:47:48.634Z,22.90
2022-08-17T02:48:00.326Z,22.90
2022-08-17T02:48:12.092Z,22.90
2022-08-17T02:48:31.104Z,22.90
2022-08-17T02:48:43.489Z,22.90
2022-08-17T02:48:55.272Z,22.90
2022-08-17T02:49:07.316Z,22.90
2022-08-17T02:49:19.101Z,22.90
2022-08-17T02:49:30.876Z,22.90
2022-08-17T02:49:46.263Z,22.90
2022-08-17T02:50:06.850Z,22.90
2022-08-17T02:50:20.018Z,23.00
2022-08-17T02:50:31.844Z,22.90
2022-08-17T02:50:43.602Z,22.90
2022-08-17T02:50:55.347Z,22.90
2022-08-17T02:51:07.116Z,22.90
2022-08-17T02:51:18.901Z,22.90
2022-08-17T02:51:30.737Z,22.90
2022-08-17T02:51:42.500Z,23.00
2022-08-17T02:51:54.249Z,23.00
2022-08-17T02:52:06.712Z,23.00
2022-08-17T02:52:18.528Z,23.00
2022-08-17T02:53:01.778Z,23.00
2022-08-17T02:53:14.467Z,23.00
2022-08-17T02:53:26.333Z,23.00
2022-08-17T02:53:38.088Z,23.00
2022-08-17T02:53:49.858Z,23.00
2022-08-17T02:54:41.055Z,23.00
2022-08-17T02:54:41.458Z,23.00
2022-08-17T02:54:54.006Z,23.00
2022-08-17T02:55:11.370Z,23.00
2022-08-17T02:55:25.926Z,23.00
2022-08-17T02:55:40.145Z,23.00
2022-08-17T02:55:52.397Z,23.00
2022-08-17T02:56:04.539Z,23.00
2022-08-17T02:56:16.413Z,23.00
2022-08-17T02:56:28.370Z,23.00
2022-08-17T02:56:40.110Z,23.00
2022-08-17T02:56:51.899Z,23.00
2022-08-17T02:57:03.879Z,23.00
2022-08-17T02:57:16.451Z,23.00
2022-08-17T02:57:28.309Z,23.00
2022-08-17T02:57:40.021Z,23.00
2022-08-17T02:57:51.883Z,23.00
2022-08-17T02:58:04.141Z,23.00
2022-08-17T02:58:18.726Z,23.00
2022-08-17T02:58:46.723Z,23.00
2022-08-17T02:58:58.679Z,23.00
2022-08-17T02:59:10.409Z,23.00
2022-08-17T02:59:22.508Z,23.00
2022-08-17T02:59:34.286Z,23.00
2022-08-17T02:59:49.058Z,23.00
2022-08-17T03:00:00.931Z,23.00
2022-08-17T03:00:16.704Z,23.00
2022-08-17T03:00:33.849Z,23.00
2022-08-17T03:00:48.975Z,23.00
2022-08-17T03:01:00.764Z,23.00
2022-08-17T03:01:13.072Z,23.00
2022-08-17T03:01:24.926Z,23.00
2022-08-17T03:01:36.799Z,23.00
2022-08-17T03:01:48.716Z,22.90
2022-08-17T03:02:00.654Z,22.90
2022-08-17T03:02:12.574Z,22.90
2022-08-17T03:02:24.349Z,22.90
2022-08-17T03:02:39.991Z,22.90
2022-08-17T03:02:52.131Z,22.90
2022-08-17T03:03:05.309Z,22.90
2022-08-17T03:03:20.046Z,22.90
2022-08-17T03:03:32.827Z,23.00
2022-08-17T03:03:45.031Z,22.90
2022-08-17T03:03:57.139Z,22.90
2022-08-17T03:04:08.959Z,23.00
2022-08-17T03:04:20.721Z,22.90
2022-08-17T03:04:35.234Z,22.90
2022-08-17T03:04:47.265Z,22.90
2022-08-17T03:04:58.976Z,22.90
2022-08-17T03:05:11.621Z,22.90
2022-08-17T03:05:25.405Z,22.90
2022-08-17T03:05:37.655Z,22.90
2022-08-17T03:05:51.285Z,22.90
2022-08-17T03:06:03.346Z,23.00
2022-08-17T03:06:15.115Z,22.90
2022-08-17T03:06:28.503Z,22.90
2022-08-17T03:06:40.299Z,22.90
2022-08-17T03:06:52.245Z,22.90
2022-08-17T03:07:04.618Z,22.90
2022-08-17T03:07:16.386Z,22.90
2022-08-17T03:07:28.086Z,22.90
2022-08-17T03:07:39.828Z,22.90
2022-08-17T03:07:51.864Z,22.90
2022-08-17T03:08:04.073Z,22.90
2022-08-17T03:08:16.027Z,22.90
2022-08-17T03:08:27.810Z,22.90
2022-08-17T03:08:40.612Z,22.90
2022-08-17T03:08:54.661Z,22.90
2022-08-17T03:09:06.406Z,22.90